Time;durP1;ratioP1;P1;durP2;ratioP2;P2;SDS_P1;SDS_P2;PMS_P1;PMS_P2;Temp;Humidity;BMP_temperature;BMP_pressure;BME280_temperature;BME280_humidity;BME280_pressure;Samples;Min_cycle;Max_cycle;Signal;HPM_P1;HPM_P2
2021/01/02 00:00:13;;;;;;;28.63;19.15;;;3.90;96.30;;;;;;5109777;28;20606;-81
2021/01/02 00:03:11;;;;;;;24.85;18.27;;;4.00;96.10;;;;;;5109464;28;20668;-81
2021/01/02 00:06:05;;;;;;;25.80;18.60;;;4.00;96.10;;;;;;5108300;28;20179;-81
2021/01/02 00:08:36;;;;;;;23.80;18.45;;;4.00;96.40;;;;;;5108483;28;20179;-80
2021/01/02 00:11:22;;;;;;;23.27;19.25;;;4.00;96.10;;;;;;5109400;28;20646;-80
2021/01/02 00:14:12;;;;;;;23.27;18.92;;;4.00;96.10;;;;;;5108803;28;20584;-80
2021/01/02 00:17:23;;;;;;;23.08;18.30;;;4.10;95.80;;;;;;5108428;28;20191;-81
2021/01/02 00:20:08;;;;;;;26.15;19.23;;;4.10;95.70;;;;;;5109934;28;20155;-81
2021/01/02 00:22:50;;;;;;;29.58;19.20;;;4.20;95.40;;;;;;5109932;28;20207;-81
2021/01/02 00:25:17;;;;;;;28.63;20.85;;;4.10;95.60;;;;;;5108595;28;20204;-81
2021/01/02 00:27:45;;;;;;;25.35;20.75;;;4.10;95.60;;;;;;5109368;28;20180;-80
2021/01/02 00:30:42;;;;;;;26.42;19.10;;;4.10;95.50;;;;;;5108858;28;20221;-80
2021/01/02 00:33:38;;;;;;;30.77;21.05;;;4.10;95.90;;;;;;5109826;28;20537;-78
2021/01/02 00:36:22;;;;;;;25.98;19.90;;;4.10;95.70;;;;;;5109502;28;20571;-79
2021/01/02 00:38:51;;;;;;;27.02;20.70;;;4.00;95.60;;;;;;5111381;28;20178;-78
2021/01/02 00:41:26;;;;;;;28.50;20.40;;;4.10;95.40;;;;;;5111845;28;20195;-78
2021/01/02 00:43:53;;;;;;;29.58;20.35;;;4.10;95.50;;;;;;5114032;28;20156;-78
2021/01/02 00:46:22;;;;;;;33.30;24.60;;;4.10;95.20;;;;;;5112947;28;20298;-78
2021/01/02 00:48:48;;;;;;;27.10;20.30;;;4.10;95.10;;;;;;5112522;28;20180;-79
2021/01/02 00:51:16;;;;;;;33.67;22.33;;;4.10;94.80;;;;;;5112586;28;20248;-78
2021/01/02 00:54:27;;;;;;;38.67;26.83;;;4.10;94.90;;;;;;5111579;28;20448;-78
2021/01/02 00:57:17;;;;;;;29.20;23.27;;;4.00;94.90;;;;;;5111972;28;20175;-78
2021/01/02 01:00:05;;;;;;;32.17;23.13;;;4.10;94.90;;;;;;5111056;28;20168;-78
2021/01/02 01:03:06;;;;;;;24.17;18.42;;;4.00;94.90;;;;;;5113418;28;20220;-79
2021/01/02 01:05:39;;;;;;;19.38;16.30;;;4.00;95.00;;;;;;5112052;28;20261;-78
2021/01/02 01:08:06;;;;;;;20.50;16.75;;;3.90;94.90;;;;;;5111377;28;20274;-78
2021/01/02 01:10:34;;;;;;;18.92;15.60;;;4.00;94.70;;;;;;5109552;28;20183;-78
2021/01/02 01:13:21;;;;;;;17.40;14.60;;;3.90;94.90;;;;;;5110923;28;20252;-78
2021/01/02 01:15:47;;;;;;;19.55;15.45;;;4.00;94.60;;;;;;5111672;28;20180;-79
2021/01/02 01:18:40;;;;;;;19.63;14.97;;;3.90;94.90;;;;;;5112372;28;20614;-78
2021/01/02 01:21:11;;;;;;;20.77;15.65;;;3.90;94.70;;;;;;5111891;28;21066;-78
2021/01/02 01:23:54;;;;;;;21.52;17.65;;;3.90;94.60;;;;;;5111254;28;20212;-78
2021/01/02 01:26:37;;;;;;;22.80;17.05;;;3.90;94.50;;;;;;5111674;28;20592;-78
2021/01/02 01:29:06;;;;;;;24.90;17.15;;;3.90;94.60;;;;;;5111910;28;20261;-78
2021/01/02 01:31:57;;;;;;;26.17;19.50;;;3.90;94.60;;;;;;5112061;28;20168;-78
2021/01/02 01:34:24;;;;;;;22.60;16.33;;;3.80;94.60;;;;;;5110850;28;20178;-78
2021/01/02 01:36:53;;;;;;;19.15;12.52;;;3.80;94.80;;;;;;5111906;28;20175;-78
2021/01/02 01:39:23;;;;;;;19.25;15.02;;;3.80;94.60;;;;;;5109934;28;20591;-78
2021/01/02 01:42:11;;;;;;;19.15;16.05;;;3.80;94.60;;;;;;5111084;28;20228;-79
2021/01/02 01:45:19;;;;;;;16.95;14.65;;;3.90;94.20;;;;;;5112139;28;20569;-78
2021/01/02 01:48:18;;;;;;;16.90;12.43;;;3.90;94.00;;;;;;5088813;28;20173;-78
2021/01/02 01:51:16;;;;;;;14.63;11.50;;;3.80;94.40;;;;;;5107961;28;20180;-78
2021/01/02 01:54:09;;;;;;;15.48;12.20;;;3.70;94.60;;;;;;5110553;28;20212;-78
2021/01/02 01:56:43;;;;;;;15.32;13.07;;;3.80;94.60;;;;;;5110873;28;20587;-78
2021/01/02 01:59:22;;;;;;;17.73;13.48;;;3.80;94.40;;;;;;5110018;28;20285;-78
2021/01/02 02:02:10;;;;;;;16.75;13.35;;;3.80;94.10;;;;;;5110143;28;20183;-78
2021/01/02 02:05:08;;;;;;;16.33;14.07;;;3.80;93.90;;;;;;5111547;28;20246;-78
2021/01/02 02:08:13;;;;;;;15.80;12.27;;;3.80;94.00;;;;;;5112452;28;20184;-78
2021/01/02 02:11:09;;;;;;;19.08;17.02;;;3.80;94.10;;;;;;5109956;28;20188;-78
2021/01/02 02:13:48;;;;;;;17.80;13.18;;;3.70;94.10;;;;;;5109689;28;20711;-78
2021/01/02 02:16:21;;;;;;;18.52;15.65;;;3.60;94.20;;;;;;5111021;28;20644;-78
2021/01/02 02:19:02;;;;;;;23.58;18.52;;;3.60;94.40;;;;;;5111486;28;20164;-78
2021/01/02 02:21:40;;;;;;;16.67;13.68;;;3.60;94.40;;;;;;5110505;28;20183;-78
2021/01/02 02:24:12;;;;;;;18.35;14.40;;;3.60;94.40;;;;;;5111959;28;20163;-78
2021/01/02 02:26:43;;;;;;;19.88;15.25;;;3.60;94.30;;;;;;5111785;28;20204;-78
2021/01/02 02:29:22;;;;;;;18.58;14.75;;;3.50;94.30;;;;;;5111278;28;20168;-78
2021/01/02 02:31:54;;;;;;;22.08;16.52;;;3.50;94.50;;;;;;5110765;28;20184;-78
2021/01/02 02:34:21;;;;;;;21.48;16.83;;;3.50;94.70;;;;;;5111323;28;21057;-78
2021/01/02 02:36:47;;;;;;;22.77;16.38;;;3.40;94.60;;;;;;5111342;28;20172;-78
2021/01/02 02:39:17;;;;;;;23.70;17.10;;;3.40;94.60;;;;;;5110771;28;20266;-79
2021/01/02 02:42:01;;;;;;;20.92;15.63;;;3.40;95.10;;;;;;5109752;28;20191;-78
2021/01/02 02:44:41;;;;;;;27.55;18.60;;;3.40;94.70;;;;;;5109223;28;20183;-78
2021/01/02 02:47:08;;;;;;;30.15;21.30;;;3.40;94.80;;;;;;5109886;28;20188;-78
2021/01/02 02:49:37;;;;;;;31.95;22.73;;;3.40;95.00;;;;;;5109286;28;20186;-78
2021/01/02 02:52:21;;;;;;;21.67;17.05;;;3.30;95.00;;;;;;5110351;28;20253;-78
2021/01/02 02:54:57;;;;;;;19.95;15.02;;;3.30;94.80;;;;;;5110880;28;20223;-78
2021/01/02 02:57:23;;;;;;;17.67;15.02;;;3.30;94.70;;;;;;5111846;28;20187;-78
2021/01/02 02:59:52;;;;;;;22.73;17.23;;;3.20;95.10;;;;;;5111786;28;20186;-79
2021/01/02 03:02:30;;;;;;;19.10;14.82;;;3.20;94.90;;;;;;5109968;28;20519;-79
2021/01/02 03:05:03;;;;;;;17.27;13.10;;;3.10;95.30;;;;;;5109356;28;20203;-78
2021/01/02 03:07:28;;;;;;;15.55;13.25;;;3.10;95.60;;;;;;5109805;28;20176;-78
2021/01/02 03:09:57;;;;;;;16.10;14.03;;;3.10;95.30;;;;;;5109694;28;20707;-79
2021/01/02 03:12:23;;;;;;;21.75;16.95;;;3.10;95.30;;;;;;5110849;28;20200;-78
2021/01/02 03:15:03;;;;;;;22.47;18.20;;;3.10;95.30;;;;;;5110077;28;20218;-79
2021/01/02 03:17:29;;;;;;;18.60;15.95;;;3.10;95.10;;;;;;5111050;28;20534;-78
2021/01/02 03:20:07;;;;;;;15.73;14.03;;;3.10;95.00;;;;;;5108904;28;20184;-79
2021/01/02 03:22:39;;;;;;;15.75;13.32;;;3.00;94.90;;;;;;5108863;28;20183;-78
2021/01/02 03:25:08;;;;;;;16.60;14.90;;;3.00;95.00;;;;;;5110553;28;20236;-79
2021/01/02 03:27:38;;;;;;;18.60;14.85;;;2.90;95.20;;;;;;5110503;28;20187;-81
2021/01/02 03:30:05;;;;;;;17.77;14.00;;;2.90;95.30;;;;;;5109927;28;20639;-81
2021/01/02 03:32:35;;;;;;;15.10;13.48;;;2.90;95.50;;;;;;5109245;28;20187;-81
2021/01/02 03:35:01;;;;;;;15.95;12.48;;;2.90;95.20;;;;;;5109277;28;20183;-81
2021/01/02 03:37:39;;;;;;;16.33;14.27;;;2.90;95.30;;;;;;5110178;28;20258;-81
2021/01/02 03:40:07;;;;;;;16.48;13.88;;;2.90;95.20;;;;;;5109909;28;20163;-81
2021/01/02 03:43:08;;;;;;;16.38;12.80;;;2.90;95.30;;;;;;5109718;28;20192;-81
2021/01/02 03:45:40;;;;;;;12.80;11.45;;;2.90;95.30;;;;;;5107557;28;20742;-81
2021/01/02 03:48:09;;;;;;;16.25;10.85;;;3.00;95.40;;;;;;5110119;28;20160;-81
2021/01/02 03:50:46;;;;;;;16.02;12.68;;;3.00;95.20;;;;;;5109150;28;20661;-81
2021/01/02 03:53:12;;;;;;;16.10;12.93;;;3.00;95.00;;;;;;5108200;28;20212;-81
2021/01/02 03:55:44;;;;;;;15.27;12.17;;;3.00;95.00;;;;;;5108562;28;20183;-81
2021/01/02 03:58:09;;;;;;;17.25;15.32;;;3.00;95.10;;;;;;5109832;28;20243;-80
2021/01/02 04:00:35;;;;;;;17.80;14.13;;;3.00;94.90;;;;;;5109342;28;20263;-81
2021/01/02 04:03:04;;;;;;;16.93;12.50;;;3.00;95.10;;;;;;5109591;28;20175;-81
2021/01/02 04:05:34;;;;;;;16.80;12.93;;;3.00;95.20;;;;;;5109819;28;20203;-81
2021/01/02 04:08:13;;;;;;;18.20;13.65;;;3.00;94.80;;;;;;5109337;28;20156;-80
2021/01/02 04:10:39;;;;;;;14.35;11.75;;;3.00;95.60;;;;;;5108796;28;20175;-80
2021/01/02 04:13:08;;;;;;;19.80;14.63;;;3.00;94.80;;;;;;5110170;28;20178;-80
2021/01/02 04:15:33;;;;;;;15.13;11.65;;;3.00;94.70;;;;;;5114275;28;20457;-81
2021/01/02 04:17:59;;;;;;;15.70;10.67;;;3.00;94.60;;;;;;5113748;28;20533;-80
2021/01/02 04:20:26;;;;;;;13.10;10.00;;;3.00;94.60;;;;;;5113420;28;20515;-81
2021/01/02 04:22:57;;;;;;;11.88;9.15;;;3.00;94.90;;;;;;5113450;28;20190;-80
2021/01/02 04:25:26;;;;;;;12.50;10.25;;;2.90;94.80;;;;;;5112517;28;20276;-80
2021/01/02 04:27:52;;;;;;;13.63;10.57;;;3.00;94.70;;;;;;5114166;28;20164;-81
2021/01/02 04:30:18;;;;;;;13.90;9.47;;;2.90;94.70;;;;;;5113875;28;20678;-81
2021/01/02 04:32:45;;;;;;;12.70;10.57;;;2.90;94.70;;;;;;5112978;28;20179;-81
2021/01/02 04:35:14;;;;;;;14.07;10.82;;;2.90;94.90;;;;;;5112910;28;20577;-81
2021/01/02 04:37:41;;;;;;;12.82;10.18;;;2.80;95.20;;;;;;5113525;28;20184;-81
2021/01/02 04:40:13;;;;;;;11.43;9.07;;;2.80;95.10;;;;;;5112025;28;20221;-81
2021/01/02 04:42:43;;;;;;;11.80;9.52;;;2.90;95.00;;;;;;5111303;28;20184;-80
2021/01/02 04:45:35;;;;;;;11.98;9.27;;;2.90;95.10;;;;;;5112811;28;20245;-81
2021/01/02 04:48:16;;;;;;;13.57;10.18;;;2.90;94.90;;;;;;5113629;28;20179;-81
2021/01/02 04:50:42;;;;;;;13.80;9.80;;;2.90;94.90;;;;;;5112592;28;20192;-81
2021/01/02 04:53:14;;;;;;;10.40;8.40;;;2.90;94.90;;;;;;5112079;28;20194;-81
2021/01/02 04:55:46;;;;;;;10.27;8.70;;;2.90;94.70;;;;;;5110976;28;20176;-81
2021/01/02 04:58:18;;;;;;;10.82;8.63;;;2.90;94.80;;;;;;5111612;28;20263;-81
2021/01/02 05:00:47;;;;;;;11.98;9.20;;;3.00;94.70;;;;;;5113032;28;20518;-81
2021/01/02 05:03:28;;;;;;;9.85;8.70;;;3.00;94.50;;;;;;5112328;28;20168;-81
2021/01/02 05:06:06;;;;;;;9.30;8.40;;;3.00;94.70;;;;;;5112291;28;20207;-80
2021/01/02 05:08:34;;;;;;;8.88;7.97;;;3.00;94.80;;;;;;5112480;28;20631;-81
2021/01/02 05:11:10;;;;;;;10.52;8.38;;;3.00;94.90;;;;;;5112054;28;20262;-81
2021/01/02 05:13:37;;;;;;;9.68;8.20;;;3.00;94.70;;;;;;5111781;28;20178;-81
2021/01/02 05:16:36;;;;;;;12.80;9.55;;;3.00;94.70;;;;;;5111474;28;20262;-81
2021/01/02 05:19:08;;;;;;;10.25;8.93;;;3.00;94.70;;;;;;5110404;28;20225;-81
2021/01/02 05:21:50;;;;;;;10.25;9.25;;;3.00;94.60;;;;;;5112340;28;20194;-81
2021/01/02 05:24:21;;;;;;;11.40;9.38;;;3.00;94.50;;;;;;5109427;28;20176;-81
2021/01/02 05:27:04;;;;;;;12.25;9.77;;;3.00;94.70;;;;;;5111210;28;20597;-81
2021/01/02 05:29:30;;;;;;;12.82;10.30;;;3.00;94.70;;;;;;5111513;28;20160;-81
2021/01/02 05:32:08;;;;;;;11.18;9.63;;;3.00;94.60;;;;;;5109816;28;20208;-81
2021/01/02 05:34:34;;;;;;;13.82;10.95;;;3.00;94.70;;;;;;5111443;28;20221;-81
2021/01/02 05:37:07;;;;;;;12.47;9.83;;;2.90;94.80;;;;;;5111898;28;20213;-81
2021/01/02 05:39:37;;;;;;;10.30;8.98;;;3.00;94.70;;;;;;5111404;28;20160;-81
2021/01/02 05:42:04;;;;;;;9.73;8.73;;;3.00;94.80;;;;;;5112305;28;20183;-81
2021/01/02 05:44:40;;;;;;;11.45;9.82;;;2.90;94.70;;;;;;5111977;28;20254;-81
2021/01/02 05:47:06;;;;;;;12.68;9.65;;;2.90;94.70;;;;;;5111217;28;20233;-81
2021/01/02 05:49:49;;;;;;;9.85;8.85;;;2.90;94.90;;;;;;5112119;28;20259;-80
2021/01/02 05:52:15;;;;;;;12.35;8.40;;;2.90;94.80;;;;;;5111387;28;20760;-81
2021/01/02 05:54:47;;;;;;;10.50;8.93;;;2.80;95.10;;;;;;5111847;28;20249;-81
2021/01/02 05:57:16;;;;;;;9.75;8.65;;;2.80;94.80;;;;;;5113057;28;20215;-81
2021/01/02 05:59:42;;;;;;;10.20;8.75;;;2.80;94.90;;;;;;5111530;28;20580;-81
2021/01/02 06:02:29;;;;;;;11.43;9.40;;;2.80;94.90;;;;;;5110368;28;20217;-80
2021/01/02 06:05:06;;;;;;;11.88;9.18;;;2.80;95.00;;;;;;5111000;28;20743;-81
2021/01/02 06:07:34;;;;;;;11.88;9.00;;;2.80;94.90;;;;;;5112853;28;20187;-80
2021/01/02 06:10:00;;;;;;;12.25;10.13;;;2.70;95.20;;;;;;5111250;28;20526;-81
2021/01/02 06:12:27;;;;;;;10.95;9.77;;;2.70;95.20;;;;;;5110555;28;20199;-81
2021/01/02 06:14:55;;;;;;;16.30;12.88;;;2.70;95.30;;;;;;5109784;28;20270;-81
2021/01/02 06:17:31;;;;;;;28.00;17.52;;;2.80;95.20;;;;;;5111749;28;20557;-81
2021/01/02 06:20:04;;;;;;;26.33;17.83;;;2.80;95.10;;;;;;5108489;28;20203;-81
2021/01/02 06:22:35;;;;;;;25.48;17.67;;;2.80;95.20;;;;;;5112116;28;20187;-81
2021/01/02 06:25:05;;;;;;;25.15;18.20;;;2.90;95.10;;;;;;5110729;28;20198;-81
2021/01/02 06:27:47;;;;;;;18.75;14.55;;;2.80;95.30;;;;;;5111585;28;20635;-80
2021/01/02 06:30:19;;;;;;;15.43;12.43;;;2.80;95.30;;;;;;5111235;28;20176;-80
2021/01/02 06:32:47;;;;;;;13.05;11.07;;;2.90;95.20;;;;;;5111083;28;20675;-80
2021/01/02 06:35:13;;;;;;;14.70;10.93;;;3.00;95.00;;;;;;5109549;28;20228;-81
2021/01/02 06:37:56;;;;;;;12.43;10.10;;;2.90;95.30;;;;;;5109834;28;20639;-80
2021/01/02 06:40:43;;;;;;;17.33;11.68;;;2.90;95.10;;;;;;5109418;28;20693;-81
2021/01/02 06:43:38;;;;;;;16.63;10.40;;;3.00;95.10;;;;;;5109457;28;20582;-81
2021/01/02 06:46:04;;;;;;;11.88;10.68;;;3.00;95.40;;;;;;5109686;28;20593;-81
2021/01/02 06:48:40;;;;;;;16.80;11.80;;;3.10;94.80;;;;;;5108660;28;20642;-81
2021/01/02 06:51:31;;;;;;;12.75;11.02;;;3.20;94.80;;;;;;5109044;28;20337;-80
2021/01/02 06:53:57;;;;;;;18.60;12.88;;;3.20;94.80;;;;;;5109337;28;20227;-81
2021/01/02 06:56:39;;;;;;;21.63;14.98;;;3.20;95.40;;;;;;5110162;28;20628;-81
2021/01/02 06:59:20;;;;;;;19.75;15.05;;;3.30;94.90;;;;;;5110516;28;20188;-81
2021/01/02 07:01:49;;;;;;;19.40;13.88;;;3.40;94.70;;;;;;5110696;27;20547;-81
2021/01/02 07:04:34;;;;;;;15.40;12.13;;;3.40;94.70;;;;;;5109886;28;20172;-80
2021/01/02 07:07:00;;;;;;;15.90;11.10;;;3.40;94.80;;;;;;5109287;28;20292;-81
2021/01/02 07:09:33;;;;;;;14.23;11.15;;;3.50;94.70;;;;;;5109375;28;20191;-81
2021/01/02 07:12:15;;;;;;;12.60;10.52;;;3.40;95.00;;;;;;5108411;28;20180;-81
2021/01/02 07:14:50;;;;;;;15.13;11.82;;;3.50;94.70;;;;;;5108501;28;20218;-81
2021/01/02 07:17:25;;;;;;;14.50;11.32;;;3.50;94.80;;;;;;5110788;28;20184;-81
2021/01/02 07:20:31;;;;;;;14.23;11.25;;;3.50;95.00;;;;;;5111379;28;20163;-81
2021/01/02 07:23:09;;;;;;;17.75;13.27;;;3.50;94.90;;;;;;5109232;28;20183;-80
2021/01/02 07:25:46;;;;;;;17.25;13.02;;;3.60;94.70;;;;;;5109003;28;20210;-81
2021/01/02 07:28:11;;;;;;;14.65;12.38;;;3.60;94.60;;;;;;5110308;28;20545;-81
2021/01/02 07:30:43;;;;;;;13.27;11.80;;;3.60;95.00;;;;;;5108426;28;20182;-80
2021/01/02 07:33:11;;;;;;;14.85;12.05;;;3.60;94.80;;;;;;5111195;28;20229;-80
2021/01/02 07:35:37;;;;;;;12.68;10.90;;;3.70;94.60;;;;;;5110649;28;20572;-80
2021/01/02 07:38:08;;;;;;;12.33;10.77;;;3.80;94.50;;;;;;5110839;28;20213;-81
2021/01/02 07:40:37;;;;;;;11.63;10.43;;;3.80;94.70;;;;;;5110788;28;20160;-81
2021/01/02 07:43:09;;;;;;;11.10;9.38;;;3.80;94.50;;;;;;5111048;28;20175;-81
2021/01/02 07:45:40;;;;;;;10.32;8.80;;;3.90;94.60;;;;;;5108602;28;20234;-80
2021/01/02 07:48:27;;;;;;;9.60;8.70;;;4.10;94.30;;;;;;5109830;28;20179;-80
2021/01/02 07:50:52;;;;;;;11.40;8.80;;;4.50;93.40;;;;;;5113518;28;20199;-80
2021/01/02 07:53:27;;;;;;;12.53;9.37;;;4.80;92.70;;;;;;5114110;28;20216;-81
2021/01/02 07:56:01;;;;;;;12.35;10.27;;;4.90;92.40;;;;;;5114066;28;20186;-81
2021/01/02 07:58:33;;;;;;;11.68;9.52;;;5.00;92.10;;;;;;5112886;28;20194;-81
2021/01/02 08:01:10;;;;;;;12.00;10.73;;;5.00;92.30;;;;;;5114199;28;20288;-81
2021/01/02 08:03:48;;;;;;;14.30;11.00;;;5.20;91.70;;;;;;5113683;28;20171;-80
2021/01/02 08:06:18;;;;;;;11.65;10.18;;;4.80;92.80;;;;;;5112757;28;20214;-81
2021/01/02 08:09:13;;;;;;;10.23;9.10;;;5.10;92.10;;;;;;5112939;28;20174;-81
2021/01/02 08:12:10;;;;;;;13.57;9.75;;;5.40;91.50;;;;;;5113094;28;20176;-81
2021/01/02 08:14:54;;;;;;;13.10;8.68;;;5.30;91.50;;;;;;5113585;28;20161;-81
2021/01/02 08:17:38;;;;;;;11.40;8.55;;;5.30;91.60;;;;;;5113830;28;21014;-81
2021/01/02 08:20:10;;;;;;;11.18;9.93;;;5.40;91.30;;;;;;5114081;28;20156;-81
2021/01/02 08:22:51;;;;;;;11.95;9.90;;;5.40;91.10;;;;;;5114505;28;20192;-81
2021/01/02 08:25:29;;;;;;;13.32;10.35;;;5.50;91.10;;;;;;5114406;28;20187;-81
2021/01/02 08:28:13;;;;;;;11.75;10.43;;;5.40;91.10;;;;;;5114739;28;20567;-81
2021/01/02 08:30:44;;;;;;;12.05;10.85;;;5.30;91.30;;;;;;5113411;28;20167;-81
2021/01/02 08:33:26;;;;;;;12.50;10.18;;;5.40;91.30;;;;;;5113404;28;20557;-80
2021/01/02 08:36:13;;;;;;;11.73;9.85;;;5.30;91.90;;;;;;5113559;28;20192;-81
2021/01/02 08:38:44;;;;;;;12.10;9.68;;;5.20;92.30;;;;;;5111943;28;20321;-80
2021/01/02 08:41:25;;;;;;;12.05;8.95;;;5.30;92.20;;;;;;5113314;28;20259;-81
2021/01/02 08:43:54;;;;;;;11.43;9.70;;;5.30;92.30;;;;;;5113634;28;20583;-81
2021/01/02 08:46:52;;;;;;;13.65;9.10;;;5.40;92.20;;;;;;5112028;28;20207;-80
2021/01/02 08:49:40;;;;;;;11.50;9.45;;;5.40;92.90;;;;;;5112759;28;20216;-81
2021/01/02 08:52:26;;;;;;;11.13;8.70;;;5.80;92.30;;;;;;5112938;27;20176;-81
2021/01/02 08:55:09;;;;;;;12.63;9.40;;;6.20;91.50;;;;;;5111449;28;20227;-81
2021/01/02 08:58:05;;;;;;;11.38;9.95;;;6.30;91.40;;;;;;5114007;28;20172;-81
2021/01/02 09:00:43;;;;;;;14.60;9.35;;;6.80;89.60;;;;;;5112394;28;20183;-80
2021/01/02 09:03:09;;;;;;;10.43;8.95;;;7.00;88.80;;;;;;5113301;27;20231;-81
2021/01/02 09:05:52;;;;;;;11.17;9.27;;;7.30;88.40;;;;;;5113383;28;20290;-81
2021/01/02 09:08:21;;;;;;;9.95;8.95;;;7.20;87.80;;;;;;5112249;28;20180;-81
2021/01/02 09:11:05;;;;;;;12.57;9.27;;;7.40;87.30;;;;;;5112644;28;20642;-81
2021/01/02 09:13:40;;;;;;;11.18;9.65;;;7.40;87.10;;;;;;5111948;28;20537;-81
2021/01/02 09:16:23;;;;;;;10.65;9.35;;;7.80;85.40;;;;;;5112843;28;20189;-81
2021/01/02 09:18:48;;;;;;;10.85;9.45;;;7.90;85.80;;;;;;5110691;28;20271;-79
2021/01/02 09:21:38;;;;;;;10.27;9.33;;;8.30;84.00;;;;;;5111142;28;20282;-79
2021/01/02 09:24:23;;;;;;;12.13;10.15;;;8.20;84.30;;;;;;5110856;28;20176;-78
2021/01/02 09:26:54;;;;;;;9.88;8.85;;;8.80;81.80;;;;;;5111349;28;20207;-80
2021/01/02 09:29:20;;;;;;;10.60;9.50;;;8.90;81.90;;;;;;5110107;28;20160;-80
2021/01/02 09:32:01;;;;;;;13.30;10.40;;;9.40;79.10;;;;;;5110912;28;20195;-80
2021/01/02 09:34:35;;;;;;;11.43;9.27;;;9.90;79.70;;;;;;5111231;28;20568;-80
2021/01/02 09:37:07;;;;;;;12.17;11.07;;;10.70;75.30;;;;;;5112108;28;20179;-80
2021/01/02 09:40:04;;;;;;;13.20;11.80;;;10.80;72.10;;;;;;5111900;28;20899;-80
2021/01/02 09:42:45;;;;;;;10.03;9.03;;;10.50;73.50;;;;;;5111913;28;20472;-81
2021/01/02 09:45:46;;;;;;;10.50;8.50;;;11.00;71.90;;;;;;5110355;28;20463;-80
2021/01/02 09:48:13;;;;;;;9.87;8.90;;;10.90;74.00;;;;;;5110640;28;20458;-80
2021/01/02 09:50:45;;;;;;;10.10;9.07;;;10.90;73.40;;;;;;5112098;27;20396;-80
2021/01/02 09:53:20;;;;;;;10.27;9.20;;;11.10;72.50;;;;;;5110315;28;20458;-80
2021/01/02 09:55:52;;;;;;;10.73;9.07;;;10.20;73.60;;;;;;5112572;27;20408;-80
2021/01/02 09:58:26;;;;;;;10.20;9.17;;;10.20;73.70;;;;;;5112222;28;20392;-79
2021/01/02 10:01:11;;;;;;;10.43;9.33;;;10.20;73.30;;;;;;5111378;28;20419;-80
2021/01/02 10:03:45;;;;;;;11.07;9.97;;;10.20;74.40;;;;;;5110458;28;20416;-80
2021/01/02 10:06:17;;;;;;;9.90;8.90;;;10.00;74.90;;;;;;5108914;28;20937;-80
2021/01/02 10:08:51;;;;;;;8.90;8.00;;;10.10;76.30;;;;;;5109615;28;20408;-80
2021/01/02 10:11:18;;;;;;;14.13;10.00;;;9.90;76.90;;;;;;5110055;28;20799;-80
2021/01/02 10:14:01;;;;;;;12.63;10.97;;;9.90;76.60;;;;;;5111110;28;20884;-80
2021/01/02 10:16:33;;;;;;;11.77;10.77;;;9.90;75.40;;;;;;5110888;28;20473;-80
2021/01/02 10:19:02;;;;;;;11.40;10.20;;;9.90;76.40;;;;;;5110567;28;20439;-80
2021/01/02 10:21:36;;;;;;;12.63;10.50;;;10.10;77.30;;;;;;5110347;28;20471;-80
2021/01/02 10:24:08;;;;;;;10.97;9.87;;;10.70;76.50;;;;;;5110741;28;20801;-80
2021/01/02 10:26:37;;;;;;;11.50;10.40;;;10.50;75.60;;;;;;5108843;28;20471;-81
2021/01/02 10:29:06;;;;;;;10.23;9.37;;;10.70;75.80;;;;;;5110736;28;20404;-82
2021/01/02 10:31:35;;;;;;;11.52;10.40;;;10.60;74.80;;;;;;5109090;28;20427;-81
2021/01/02 10:34:04;;;;;;;15.10;10.43;;;10.20;76.40;;;;;;5109978;28;20255;-81
2021/01/02 10:36:41;;;;;;;9.52;8.52;;;10.40;76.60;;;;;;5109049;28;20420;-81
2021/01/02 10:39:12;;;;;;;9.98;8.93;;;10.30;76.40;;;;;;5110183;28;20553;-81
2021/01/02 10:41:42;;;;;;;10.30;9.17;;;10.20;78.80;;;;;;5107356;28;20223;-81
2021/01/02 10:44:13;;;;;;;11.02;8.50;;;10.40;77.50;;;;;;5109324;28;20521;-81
2021/01/02 10:46:46;;;;;;;9.85;8.85;;;10.60;77.50;;;;;;5109805;28;20237;-81
2021/01/02 10:49:23;;;;;;;9.98;8.55;;;10.50;76.70;;;;;;5110615;28;20662;-81
2021/01/02 10:52:06;;;;;;;9.07;7.93;;;10.70;75.30;;;;;;5110235;28;20171;-81
2021/01/02 10:54:35;;;;;;;9.90;7.25;;;10.70;75.80;;;;;;5109710;28;20223;-81
2021/01/02 10:57:04;;;;;;;9.18;8.38;;;10.20;78.30;;;;;;5109575;28;20635;-81
2021/01/02 10:59:45;;;;;;;8.80;7.03;;;10.60;76.00;;;;;;5108425;28;20180;-80
2021/01/02 11:02:18;;;;;;;8.23;7.43;;;10.70;78.50;;;;;;5109512;28;20184;-81
2021/01/02 11:04:56;;;;;;;10.95;9.85;;;10.60;78.60;;;;;;5109496;28;20179;-81
2021/01/02 11:07:23;;;;;;;8.48;7.20;;;10.80;75.20;;;;;;5109632;28;20207;-81
2021/01/02 11:09:50;;;;;;;8.85;7.95;;;10.70;76.90;;;;;;5108469;28;20208;-81
2021/01/02 11:12:15;;;;;;;7.70;6.90;;;11.00;75.30;;;;;;5109272;28;20179;-81
2021/01/02 11:14:41;;;;;;;9.20;7.17;;;11.20;74.80;;;;;;5108644;28;20168;-81
2021/01/02 11:17:10;;;;;;;8.93;7.53;;;11.10;74.30;;;;;;5108034;28;20600;-81
2021/01/02 11:19:38;;;;;;;8.13;7.32;;;11.10;74.40;;;;;;5109041;28;20175;-82
2021/01/02 11:22:22;;;;;;;9.88;8.88;;;11.00;74.60;;;;;;5109770;28;20191;-81
2021/01/02 11:24:50;;;;;;;9.57;8.18;;;11.00;74.40;;;;;;5109096;28;20164;-81
2021/01/02 11:27:34;;;;;;;8.70;7.85;;;10.90;76.50;;;;;;5110067;28;20229;-81
2021/01/02 11:30:12;;;;;;;9.02;8.13;;;10.80;75.10;;;;;;5108382;28;20171;-80
2021/01/02 11:32:40;;;;;;;10.30;8.90;;;10.70;76.90;;;;;;5108051;28;20188;-81
2021/01/02 11:35:09;;;;;;;9.70;8.68;;;10.90;77.70;;;;;;5108629;28;20179;-81
2021/01/02 11:37:44;;;;;;;10.13;7.85;;;10.90;76.40;;;;;;5108609;28;20194;-81
2021/01/02 11:40:16;;;;;;;9.82;8.82;;;10.90;76.40;;;;;;5107871;28;20204;-81
2021/01/02 11:42:50;;;;;;;10.10;8.13;;;10.90;76.90;;;;;;5108461;28;20572;-82
2021/01/02 11:45:20;;;;;;;9.95;8.85;;;10.90;78.10;;;;;;5108074;28;20686;-81
2021/01/02 11:47:46;;;;;;;9.77;8.18;;;11.20;74.80;;;;;;5108371;28;20260;-81
2021/01/02 11:50:15;;;;;;;9.43;8.40;;;11.20;73.80;;;;;;5108271;28;20686;-81
2021/01/02 11:52:43;;;;;;;10.50;8.13;;;11.20;74.30;;;;;;5109497;28;20183;-81
2021/01/02 11:55:09;;;;;;;10.32;7.35;;;11.30;74.60;;;;;;5108029;28;20232;-81
2021/01/02 11:57:42;;;;;;;8.07;7.27;;;11.40;74.00;;;;;;5106993;28;20217;-81
2021/01/02 12:00:12;;;;;;;9.23;8.32;;;11.60;73.00;;;;;;5109740;28;20457;-81
2021/01/02 12:02:44;;;;;;;9.52;8.25;;;11.40;73.80;;;;;;5107745;28;20558;-80
2021/01/02 12:05:13;;;;;;;9.88;8.93;;;11.50;73.80;;;;;;5107848;28;20531;-81
2021/01/02 12:07:41;;;;;;;8.13;6.97;;;11.60;73.10;;;;;;5108771;28;20607;-81
2021/01/02 12:10:10;;;;;;;9.90;7.22;;;11.80;73.00;;;;;;5108372;28;20211;-81
2021/01/02 12:12:38;;;;;;;8.77;7.88;;;11.80;73.20;;;;;;5108273;28;20176;-80
2021/01/02 12:15:08;;;;;;;9.13;7.15;;;11.70;73.60;;;;;;5107692;28;20172;-81
2021/01/02 12:17:33;;;;;;;9.33;7.40;;;11.80;73.60;;;;;;5107558;28;20275;-81
2021/01/02 12:20:03;;;;;;;8.30;7.30;;;12.00;72.60;;;;;;5107579;28;20513;-81
2021/01/02 12:23:04;;;;;;;9.00;8.10;;;11.80;72.80;;;;;;5108471;28;20176;-81
2021/01/02 12:25:29;;;;;;;9.00;7.80;;;11.80;72.70;;;;;;5108684;28;20206;-82
2021/01/02 12:28:01;;;;;;;7.60;6.57;;;12.00;71.20;;;;;;5107360;28;20180;-81
2021/01/02 12:30:30;;;;;;;8.30;7.45;;;12.10;71.80;;;;;;5107855;28;20190;-81
2021/01/02 12:32:58;;;;;;;6.88;6.18;;;11.70;73.00;;;;;;5108409;28;20176;-81
2021/01/02 12:35:31;;;;;;;8.63;6.77;;;11.50;74.70;;;;;;5110668;28;20232;-81
2021/01/02 12:38:02;;;;;;;7.53;6.55;;;11.60;72.50;;;;;;5112460;27;20902;-81
2021/01/02 12:40:34;;;;;;;10.23;9.10;;;11.60;72.60;;;;;;5113451;28;20562;-81
2021/01/02 12:43:00;;;;;;;7.93;6.57;;;11.80;72.80;;;;;;5110063;28;20472;-81
2021/01/02 12:45:28;;;;;;;7.07;6.40;;;11.80;73.50;;;;;;5113201;28;20502;-80
2021/01/02 12:47:56;;;;;;;7.43;6.63;;;11.90;73.50;;;;;;5109913;28;20183;-81
2021/01/02 12:50:22;;;;;;;6.20;5.70;;;11.90;74.40;;;;;;5111250;27;20831;-81
2021/01/02 12:52:47;;;;;;;8.20;6.97;;;11.90;73.60;;;;;;5111423;28;20771;-81
2021/01/02 12:55:16;;;;;;;7.57;6.87;;;12.00;72.20;;;;;;5108887;28;20235;-80
2021/01/02 12:57:42;;;;;;;8.95;6.28;;;11.70;74.20;;;;;;5110675;28;20188;-80
2021/01/02 13:00:17;;;;;;;6.83;6.13;;;11.50;75.80;;;;;;5111416;28;20190;-80
2021/01/02 13:02:43;;;;;;;8.18;6.22;;;11.60;74.80;;;;;;5111171;28;20179;-81
2021/01/02 13:05:20;;;;;;;9.00;6.13;;;11.40;75.30;;;;;;5111270;28;20241;-80
2021/01/02 13:08:01;;;;;;;6.40;5.82;;;11.40;75.40;;;;;;5107634;28;20290;-81
2021/01/02 13:10:38;;;;;;;8.27;7.18;;;11.40;76.50;;;;;;5109940;28;20167;-80
2021/01/02 13:13:13;;;;;;;8.27;5.95;;;11.40;77.00;;;;;;5110314;28;20172;-80
2021/01/02 13:15:38;;;;;;;7.68;6.55;;;11.60;77.30;;;;;;5110325;28;20565;-80
2021/01/02 13:18:16;;;;;;;6.10;5.50;;;11.70;76.70;;;;;;5110428;28;20258;-80
2021/01/02 13:20:44;;;;;;;8.50;6.10;;;11.60;78.20;;;;;;5109884;28;20651;-80